Time;durP1;ratioP1;P1;durP2;ratioP2;P2;SDS_P1;SDS_P2;PMS_P1;PMS_P2;Temp;Humidity;BMP_temperature;BMP_pressure;BME280_temperature;BME280_humidity;BME280_pressure;Samples;Min_cycle;Max_cycle;Signal;HPM_P1;HPM_P2
2021/04/27 00:00:51;;;;;;;27.70;10.90;;;;;;;2.44;76.04;98338.91;5021688;28;20120;-61
2021/04/27 00:03:17;;;;;;;16.57;8.17;;;;;;;2.34;76.34;98334.59;5022222;28;20029;-61
2021/04/27 00:05:42;;;;;;;29.90;11.70;;;;;;;2.37;75.97;98331.25;5019385;28;20029;-61
2021/04/27 00:08:08;;;;;;;17.13;8.83;;;;;;;2.41;75.36;98321.16;5020029;28;20034;-62
2021/04/27 00:10:34;;;;;;;19.73;9.10;;;;;;;2.27;75.99;98321.06;5021264;28;20053;-62
2021/04/27 00:13:01;;;;;;;23.50;8.97;;;;;;;2.30;75.90;98318.53;5022383;28;20072;-62
2021/04/27 00:15:28;;;;;;;32.83;12.03;;;;;;;2.29;76.36;98321.06;5022572;28;20037;-62
2021/04/27 00:17:54;;;;;;;19.87;9.53;;;;;;;2.17;76.55;98310.81;5021793;28;20506;-62
2021/04/27 00:20:23;;;;;;;21.67;9.77;;;;;;;2.14;77.48;98316.72;5023445;28;20116;-62
2021/04/27 00:22:48;;;;;;;22.87;9.67;;;;;;;2.08;77.50;98316.66;5024416;28;20033;-62
2021/04/27 00:25:15;;;;;;;17.57;8.37;;;;;;;2.06;77.78;98303.16;5029119;28;20032;-62
2021/04/27 00:27:42;;;;;;;18.67;9.80;;;;;;;2.05;77.97;98308.19;5024149;28;20041;-62
2021/04/27 00:30:08;;;;;;;18.10;8.97;;;;;;;2.06;77.50;98308.22;5026457;28;20047;-62
2021/04/27 00:32:34;;;;;;;20.17;9.03;;;;;;;2.06;77.67;98308.22;5024723;28;20113;-62
2021/04/27 00:35:00;;;;;;;20.60;8.80;;;;;;;2.05;77.61;98306.50;5024795;28;20033;-62
2021/04/27 00:37:26;;;;;;;22.20;9.47;;;;;;;2.01;77.71;98298.88;5024959;28;20036;-62
2021/04/27 00:39:51;;;;;;;25.60;9.60;;;;;;;2.02;77.60;98298.91;5025835;28;20033;-62
2021/04/27 00:42:16;;;;;;;23.97;9.37;;;;;;;1.97;77.45;98295.50;5033240;28;20033;-62
2021/04/27 00:44:42;;;;;;;23.57;9.10;;;;;;;1.93;77.31;98288.72;5026555;28;20030;-62
2021/04/27 00:47:07;;;;;;;19.57;8.47;;;;;;;1.89;77.42;98281.09;5028430;28;20037;-63
2021/04/27 00:49:33;;;;;;;20.43;9.87;;;;;;;1.91;77.68;98285.31;5029324;28;20033;-62
2021/04/27 00:51:58;;;;;;;16.80;8.00;;;;;;;1.88;77.54;98285.28;5025980;28;20117;-62
2021/04/27 00:54:24;;;;;;;20.60;9.40;;;;;;;1.89;77.94;98278.56;5028134;28;20038;-63
2021/04/27 00:56:50;;;;;;;16.33;7.73;;;;;;;1.90;77.42;98275.19;5024150;28;20132;-61
2021/04/27 00:59:15;;;;;;;21.83;9.43;;;;;;;1.82;77.33;98275.94;5026305;28;20527;-61
2021/04/27 01:01:40;;;;;;;27.20;10.63;;;;;;;1.83;77.42;98276.81;5024479;28;20478;-61
2021/04/27 01:04:06;;;;;;;20.23;9.03;;;;;;;1.75;77.47;98271.69;5024962;28;20037;-61
2021/04/27 01:06:31;;;;;;;20.47;9.20;;;;;;;1.80;77.28;98275.09;5022053;28;20451;-61
2021/04/27 01:09:12;;;;;;;31.93;12.37;;;;;;;1.82;77.25;98273.44;5023525;28;20125;-61
2021/04/27 01:11:47;;;;;;;15.90;7.97;;;;;;;1.77;77.50;98274.25;5023863;28;20044;-61
2021/04/27 01:14:18;;;;;;;21.35;8.70;;;;;;;1.80;77.61;98270.06;5025081;28;20041;-63
2021/04/27 01:16:49;;;;;;;21.83;8.83;;;;;;;1.66;77.64;98269.06;5024360;28;20033;-61
2021/04/27 01:19:17;;;;;;;16.80;8.70;;;;;;;1.64;77.68;98272.41;5025353;28;20025;-61
2021/04/27 01:21:43;;;;;;;22.70;9.73;;;;;;;1.58;77.84;98278.25;5028256;28;20379;-61
2021/04/27 01:24:25;;;;;;;19.43;8.60;;;;;;;1.58;78.35;98282.44;5025487;28;20026;-61
2021/04/27 01:26:54;;;;;;;17.67;7.90;;;;;;;1.59;78.43;98285.00;5039743;28;20405;-62
2021/04/27 01:29:23;;;;;;;16.37;8.53;;;;;;;1.53;78.01;98284.09;5026771;28;20300;-62
2021/04/27 01:31:51;;;;;;;23.37;9.87;;;;;;;1.49;78.11;98283.19;5024106;28;20120;-62
2021/04/27 01:34:26;;;;;;;22.20;9.70;;;;;;;1.53;78.41;98289.97;5022987;28;20430;-62
2021/04/27 01:36:53;;;;;;;27.65;11.38;;;;;;;1.56;78.14;98292.56;5024456;28;20402;-61
2021/04/27 01:39:27;;;;;;;20.43;9.23;;;;;;;1.49;78.55;98288.25;5041292;28;20586;-61
2021/04/27 01:41:54;;;;;;;21.43;9.30;;;;;;;1.46;78.12;98293.25;5023346;28;20038;-61
2021/04/27 01:44:20;;;;;;;22.50;10.33;;;;;;;1.48;78.37;98294.16;5022692;28;20065;-61
2021/04/27 01:46:46;;;;;;;21.87;9.80;;;;;;;1.43;78.37;98302.50;5024613;28;20410;-61
2021/04/27 01:49:16;;;;;;;18.40;9.33;;;;;;;1.48;77.80;98300.88;5024150;28;20048;-61
2021/04/27 01:51:42;;;;;;;21.17;9.30;;;;;;;1.53;77.16;98299.25;5034464;28;20425;-62
2021/04/27 01:54:08;;;;;;;17.70;9.30;;;;;;;1.50;76.98;98302.56;5023959;28;20056;-62
2021/04/27 01:56:34;;;;;;;19.47;8.87;;;;;;;1.41;77.51;98302.47;5029415;28;20040;-62
2021/04/27 01:59:00;;;;;;;26.00;9.70;;;;;;;1.33;78.05;98301.53;5026746;28;20375;-62
2021/04/27 02:01:26;;;;;;;24.37;8.87;;;;;;;1.29;78.54;98295.59;5024009;28;20045;-62
2021/04/27 02:03:51;;;;;;;17.40;8.20;;;;;;;1.26;78.09;98303.16;5025544;28;20116;-62
2021/04/27 02:06:17;;;;;;;21.37;9.07;;;;;;;1.22;78.27;98303.94;5025052;28;20100;-62
2021/04/27 02:08:48;;;;;;;23.77;9.67;;;;;;;1.27;78.33;98298.94;5027782;28;20025;-61
2021/04/27 02:11:14;;;;;;;19.77;8.83;;;;;;;1.16;78.77;98292.91;5027650;28;20053;-62
2021/04/27 02:13:40;;;;;;;21.23;10.33;;;;;;;1.11;78.89;98299.56;5026570;28;20438;-62
2021/04/27 02:16:07;;;;;;;27.30;10.33;;;;;;;1.12;78.77;98298.75;5023881;28;20113;-62
2021/04/27 02:18:58;;;;;;;22.70;9.27;;;;;;;1.06;78.71;98296.97;5024524;28;20037;-61
2021/04/27 02:21:25;;;;;;;19.90;9.07;;;;;;;1.09;78.93;98311.31;5028012;28;20087;-62
2021/04/27 02:23:52;;;;;;;21.57;9.33;;;;;;;1.03;78.93;98307.03;5026899;28;20025;-62
2021/04/27 02:26:18;;;;;;;24.07;9.27;;;;;;;1.03;79.13;98312.09;5026787;28;20054;-61
2021/04/27 02:28:45;;;;;;;23.03;9.87;;;;;;;1.04;79.38;98310.41;5024299;28;20116;-61
2021/04/27 02:31:11;;;;;;;20.77;9.20;;;;;;;0.99;79.43;98309.50;5025116;28;20041;-61
2021/04/27 02:33:40;;;;;;;23.90;10.17;;;;;;;1.01;79.81;98312.91;5026104;28;20026;-61
2021/04/27 02:36:05;;;;;;;20.87;10.33;;;;;;;0.97;80.04;98312.03;5028039;28;20029;-61
2021/04/27 02:38:31;;;;;;;25.57;10.50;;;;;;;0.90;80.21;98313.59;5023134;28;20276;-61
2021/04/27 02:40:59;;;;;;;22.60;10.03;;;;;;;0.96;79.67;98315.38;5022405;28;20025;-61
2021/04/27 02:43:25;;;;;;;23.03;9.80;;;;;;;0.89;79.28;98321.16;5023909;28;20022;-61
2021/04/27 02:45:52;;;;;;;24.37;10.33;;;;;;;0.91;79.30;98322.88;5024657;28;20018;-61
2021/04/27 02:48:20;;;;;;;22.17;10.10;;;;;;;0.86;79.72;98316.91;5024957;28;20079;-61
2021/04/27 02:50:52;;;;;;;22.00;9.10;;;;;;;0.93;78.89;98322.91;5026877;28;20021;-61
2021/04/27 02:53:17;;;;;;;19.57;8.93;;;;;;;0.85;79.41;98322.78;5023571;28;20044;-61
2021/04/27 02:55:43;;;;;;;23.13;9.97;;;;;;;0.93;79.13;98310.28;5025541;28;20034;-62
2021/04/27 02:58:09;;;;;;;26.83;11.33;;;;;;;0.96;80.13;98310.31;5023715;28;20044;-61
2021/04/27 03:00:35;;;;;;;24.60;11.07;;;;;;;0.95;80.43;98311.13;5025502;28;20036;-61
2021/04/27 03:03:01;;;;;;;30.83;12.40;;;;;;;0.86;80.96;98311.84;5023401;28;20017;-61
2021/04/27 03:05:27;;;;;;;28.37;11.53;;;;;;;0.91;80.51;98314.44;5024147;28;20118;-61
2021/04/27 03:07:52;;;;;;;28.17;11.97;;;;;;;0.85;80.49;98316.88;5025825;28;20021;-61
2021/04/27 03:10:18;;;;;;;27.33;11.63;;;;;;;0.88;80.99;98317.78;5023416;28;20064;-63
2021/04/27 03:12:44;;;;;;;32.97;13.97;;;;;;;0.87;81.47;98320.28;5024994;28;20021;-61
2021/04/27 03:15:11;;;;;;;27.33;11.23;;;;;;;0.90;80.95;98322.84;5023878;28;20064;-61
2021/04/27 03:17:37;;;;;;;25.97;11.63;;;;;;;0.83;80.94;98319.41;5023394;28;20436;-61
2021/04/27 03:20:06;;;;;;;23.53;11.20;;;;;;;0.83;80.66;98321.06;5024389;28;20055;-61
2021/04/27 03:22:31;;;;;;;30.03;11.63;;;;;;;0.80;80.53;98326.06;5024672;28;20378;-62
2021/04/27 03:24:57;;;;;;;38.63;14.87;;;;;;;0.71;80.58;98321.75;5024860;28;20067;-62
2021/04/27 03:27:22;;;;;;;29.40;12.33;;;;;;;0.71;81.14;98326.78;5024481;28;20057;-62
2021/04/27 03:29:48;;;;;;;27.60;11.80;;;;;;;0.74;81.36;98323.44;5023863;28;20022;-62
2021/04/27 03:32:14;;;;;;;29.90;12.80;;;;;;;0.66;81.64;98320.81;5024734;28;20045;-62
2021/04/27 03:34:40;;;;;;;22.17;14.53;;;;;;;0.72;81.65;98317.56;5022996;28;20036;-62
2021/04/27 03:37:05;;;;;;;24.50;12.20;;;;;;;0.74;81.75;98323.44;5018914;28;20120;-62
2021/04/27 03:39:32;;;;;;;26.90;11.73;;;;;;;0.78;81.32;98321.00;5025437;28;20136;-62
2021/04/27 03:41:57;;;;;;;24.57;11.20;;;;;;;0.88;80.73;98319.47;5021123;28;20111;-62
2021/04/27 03:44:23;;;;;;;27.00;11.63;;;;;;;0.83;80.74;98326.13;5022255;28;20151;-62
2021/04/27 03:46:48;;;;;;;37.27;14.27;;;;;;;0.85;80.82;98321.91;5021672;28;20112;-62
2021/04/27 03:49:13;;;;;;;28.23;13.03;;;;;;;0.84;81.18;98325.28;5021375;28;20059;-62
2021/04/27 03:51:39;;;;;;;30.63;13.90;;;;;;;0.81;81.48;98323.56;5021691;28;20076;-62
2021/04/27 03:54:05;;;;;;;26.87;11.93;;;;;;;0.83;81.18;98319.41;5022949;28;20040;-62
2021/04/27 03:56:31;;;;;;;35.53;13.43;;;;;;;0.84;81.33;98325.28;5021775;28;20037;-62
2021/04/27 03:58:56;;;;;;;26.27;12.47;;;;;;;0.81;81.37;98321.03;5024806;28;20034;-62
2021/04/27 04:01:22;;;;;;;22.80;11.20;;;;;;;0.82;80.99;98327.78;5021743;28;20025;-62
2021/04/27 04:03:47;;;;;;;26.63;10.80;;;;;;;0.76;80.92;98325.19;5024354;28;20026;-62
2021/04/27 04:06:13;;;;;;;26.50;11.23;;;;;;;0.70;80.85;98327.59;5032729;28;20266;-62
2021/04/27 04:08:38;;;;;;;26.93;12.73;;;;;;;0.72;81.28;98325.13;5021782;28;20156;-62
2021/04/27 04:11:04;;;;;;;27.13;12.93;;;;;;;0.88;80.45;98327.88;5021677;28;20112;-62
2021/04/27 04:13:30;;;;;;;32.03;14.23;;;;;;;0.93;80.68;98322.91;5023334;28;20033;-62
2021/04/27 04:15:55;;;;;;;39.70;34.27;;;;;;;0.97;80.19;98328.84;5024498;28;20021;-62
2021/04/27 04:18:21;;;;;;;32.50;23.20;;;;;;;1.00;80.16;98331.38;5022884;28;20071;-61
2021/04/27 04:20:47;;;;;;;31.07;18.73;;;;;;;1.07;79.95;98334.00;5021426;28;20030;-61
2021/04/27 04:23:14;;;;;;;26.13;14.60;;;;;;;1.17;79.90;98330.78;5024209;28;20130;-62
2021/04/27 04:25:39;;;;;;;32.40;15.03;;;;;;;1.29;79.82;98342.72;5022153;28;20398;-61
2021/04/27 04:28:05;;;;;;;32.97;15.87;;;;;;;1.33;79.08;98341.94;5024524;28;20037;-62
2021/04/27 04:30:31;;;;;;;28.17;13.13;;;;;;;1.46;79.17;98342.94;5021172;28;20045;-62
2021/04/27 04:32:57;;;;;;;25.57;11.23;;;;;;;1.64;78.58;98338.09;5021499;28;20415;-62
2021/04/27 04:35:24;;;;;;;18.37;9.43;;;;;;;1.72;78.40;98332.31;5019292;28;20120;-62
2021/04/27 04:37:49;;;;;;;28.40;12.13;;;;;;;1.81;77.90;98336.59;5023117;28;20692;-62
2021/04/27 04:40:16;;;;;;;24.77;11.40;;;;;;;2.06;78.19;98343.59;5030217;28;20029;-62
2021/04/27 04:42:42;;;;;;;26.23;10.97;;;;;;;2.20;77.24;98348.81;5019867;28;20029;-63
2021/04/27 04:45:10;;;;;;;23.00;9.97;;;;;;;2.20;77.00;98348.81;5022010;28;20021;-62
2021/04/27 04:47:35;;;;;;;24.80;10.37;;;;;;;2.16;77.37;98344.56;5021103;28;20053;-62
2021/04/27 04:50:01;;;;;;;26.30;12.57;;;;;;;2.19;77.06;98357.22;5023687;28;20026;-62
2021/04/27 04:52:27;;;;;;;23.00;11.13;;;;;;;2.32;76.95;98351.44;5023400;28;20022;-62
2021/04/27 04:54:53;;;;;;;32.90;13.63;;;;;;;2.40;76.71;98354.03;5021245;28;20049;-62
2021/04/27 04:57:19;;;;;;;32.67;13.43;;;;;;;2.29;76.58;98337.06;5022190;28;20379;-62
2021/04/27 04:59:44;;;;;;;25.57;11.53;;;;;;;2.47;76.00;98349.03;5022327;28;20116;-61
2021/04/27 05:02:10;;;;;;;28.53;12.83;;;;;;;2.46;76.39;98354.09;5021591;28;20060;-61
2021/04/27 05:04:35;;;;;;;29.73;13.43;;;;;;;2.61;76.89;98361.81;5023544;28;20036;-61
2021/04/27 05:07:07;;;;;;;20.93;11.17;;;;;;;2.74;76.35;98361.91;5021904;28;20025;-62
2021/04/27 05:09:32;;;;;;;24.17;11.20;;;;;;;2.79;76.45;98354.34;5022531;28;20088;-62
2021/04/27 05:11:59;;;;;;;30.77;13.13;;;;;;;2.80;76.23;98350.97;5021982;28;20391;-62
2021/04/27 05:14:24;;;;;;;33.17;13.80;;;;;;;2.94;75.88;98368.78;5019774;28;20040;-62
2021/04/27 05:16:50;;;;;;;24.50;13.03;;;;;;;2.98;75.98;98366.28;5020684;28;20037;-63
2021/04/27 05:19:15;;;;;;;29.60;12.77;;;;;;;3.07;74.46;98373.09;5025114;28;20390;-62
2021/04/27 05:21:42;;;;;;;31.90;13.23;;;;;;;3.13;74.46;98373.16;5028300;28;20033;-62
2021/04/27 05:24:07;;;;;;;25.87;11.53;;;;;;;3.20;74.39;98379.94;5024439;28;20025;-63
2021/04/27 05:26:33;;;;;;;23.17;12.00;;;;;;;3.43;74.40;98382.59;5026705;28;20355;-62
2021/04/27 05:28:59;;;;;;;23.47;12.10;;;;;;;3.57;73.02;98381.81;5025717;28;20034;-62
2021/04/27 05:31:24;;;;;;;25.70;12.30;;;;;;;3.63;73.11;98383.53;5024448;28;20041;-61
2021/04/27 05:33:50;;;;;;;24.50;10.93;;;;;;;3.73;72.89;98389.50;5024927;28;20472;-62
2021/04/27 05:36:15;;;;;;;25.80;12.33;;;;;;;3.80;72.56;98384.47;5025523;28;20080;-62
2021/04/27 05:38:41;;;;;;;29.93;13.83;;;;;;;4.00;72.27;98392.13;5023287;28;20033;-62
2021/04/27 05:41:06;;;;;;;27.10;12.53;;;;;;;4.30;71.59;98376.13;5024233;28;20030;-62
2021/04/27 05:43:32;;;;;;;39.30;16.77;;;;;;;4.54;71.57;98377.00;5025916;28;20021;-62
2021/04/27 05:45:57;;;;;;;30.57;14.50;;;;;;;4.70;71.13;98382.09;5023730;28;20355;-62
2021/04/27 05:48:23;;;;;;;36.87;15.33;;;;;;;5.03;71.31;98382.94;5024838;28;20168;-62
2021/04/27 05:50:48;;;;;;;29.43;14.00;;;;;;;5.21;70.64;98379.53;5025358;28;20367;-62
2021/04/27 05:53:14;;;;;;;42.47;17.10;;;;;;;5.59;69.05;98387.06;5024387;28;20041;-62
2021/04/27 05:55:40;;;;;;;45.10;18.57;;;;;;;5.80;67.22;98381.03;5026842;28;20242;-62
2021/04/27 05:58:10;;;;;;;27.43;13.80;;;;;;;6.12;66.27;98375.81;5026466;28;20386;-62
2021/04/27 06:00:36;;;;;;;35.50;15.97;;;;;;;6.14;65.51;98374.13;5024878;28;20060;-62
2021/04/27 06:03:01;;;;;;;31.47;14.53;;;;;;;6.23;65.09;98377.47;5026843;28;20034;-62
2021/04/27 06:05:27;;;;;;;28.93;14.97;;;;;;;6.65;65.08;98378.88;5024880;28;20017;-62
2021/04/27 06:07:52;;;;;;;44.73;19.20;;;;;;;6.93;64.34;98382.03;5026576;28;20034;-60
2021/04/27 06:10:18;;;;;;;32.83;14.97;;;;;;;7.25;62.77;98382.59;5022131;28;20144;-62
2021/04/27 06:12:43;;;;;;;30.97;14.60;;;;;;;7.42;62.14;98381.59;5031758;28;20037;-60
2021/04/27 06:15:09;;;;;;;28.77;14.37;;;;;;;6.94;63.02;98381.19;5023437;28;20344;-61
2021/04/27 06:17:35;;;;;;;31.00;15.77;;;;;;;6.86;63.72;98372.75;5024579;28;20399;-61
2021/04/27 06:20:06;;;;;;;25.10;12.77;;;;;;;6.76;64.93;98379.63;5024261;28;20464;-61
2021/04/27 06:22:31;;;;;;;36.23;15.57;;;;;;;6.95;64.66;98376.94;5023338;28;20029;-61
2021/04/27 06:24:57;;;;;;;24.87;13.30;;;;;;;7.35;64.61;98381.63;5023242;28;20402;-61
2021/04/27 06:27:24;;;;;;;29.93;14.60;;;;;;;7.77;63.04;98376.91;5022253;28;20108;-61
2021/04/27 06:29:50;;;;;;;30.13;14.57;;;;;;;7.84;61.45;98376.00;5026043;28;20040;-61
2021/04/27 06:32:16;;;;;;;31.83;15.53;;;;;;;7.32;62.59;98378.28;5022699;28;20046;-62
2021/04/27 06:34:41;;;;;;;29.93;14.93;;;;;;;7.34;63.44;98379.94;5025041;28;20079;-61
2021/04/27 06:37:07;;;;;;;28.53;14.47;;;;;;;7.40;63.78;98379.03;5024695;28;20025;-61
2021/04/27 06:39:32;;;;;;;35.87;16.10;;;;;;;7.71;63.25;98377.00;5023924;28;20472;-61
2021/04/27 06:41:58;;;;;;;27.07;14.87;;;;;;;8.14;61.37;98365.38;5022360;28;20040;-61
2021/04/27 06:44:23;;;;;;;45.87;17.80;;;;;;;8.21;60.82;98369.53;5024251;28;20065;-62
2021/04/27 06:46:48;;;;;;;31.23;14.77;;;;;;;8.10;62.26;98362.91;5021923;28;20316;-61
2021/04/27 06:49:14;;;;;;;39.93;20.27;;;;;;;8.39;61.11;98370.19;5031165;28;20030;-61
2021/04/27 06:51:39;;;;;;;38.83;16.40;;;;;;;8.66;60.19;98362.94;5025133;28;20034;-61
2021/04/27 06:54:05;;;;;;;44.43;20.07;;;;;;;8.83;59.02;98366.91;5023125;28;20358;-60
2021/04/27 06:56:30;;;;;;;32.13;17.00;;;;;;;8.85;59.33;98371.16;5014490;28;20469;-61
2021/04/27 06:58:56;;;;;;;38.40;18.27;;;;;;;8.26;62.10;98357.56;5020409;28;20037;-61
2021/04/27 07:01:21;;;;;;;34.23;16.50;;;;;;;7.67;62.47;98368.53;5030277;28;20056;-61
2021/04/27 07:03:48;;;;;;;40.83;18.97;;;;;;;7.87;63.38;98370.00;5024413;28;20049;-61
2021/04/27 07:06:15;;;;;;;28.80;15.60;;;;;;;8.40;60.87;98370.13;5023323;28;20022;-61
2021/04/27 07:08:41;;;;;;;39.53;17.73;;;;;;;8.67;61.18;98368.88;5021899;28;20302;-61
2021/04/27 07:11:07;;;;;;;33.97;17.60;;;;;;;8.38;60.11;98365.94;5021671;28;20068;-62
2021/04/27 07:13:32;;;;;;;43.70;22.10;;;;;;;8.43;61.86;98359.91;5020860;28;20038;-60
2021/04/27 07:15:58;;;;;;;31.43;16.00;;;;;;;8.83;60.23;98357.53;5025050;28;20041;-61
2021/04/27 07:18:24;;;;;;;44.00;19.53;;;;;;;8.58;59.75;98358.81;5021597;28;20116;-61
2021/04/27 07:20:50;;;;;;;28.93;16.13;;;;;;;8.44;60.67;98358.19;5022741;28;20029;-62
2021/04/27 07:23:15;;;;;;;44.03;19.80;;;;;;;8.54;60.42;98357.16;5022280;28;20029;-61
2021/04/27 07:25:42;;;;;;;34.40;16.73;;;;;;;8.66;60.22;98362.09;5020635;28;20072;-61
2021/04/27 07:28:07;;;;;;;46.93;21.37;;;;;;;8.64;60.01;98356.16;5020499;28;20033;-61
2021/04/27 07:30:34;;;;;;;33.03;18.47;;;;;;;8.56;60.36;98365.66;5028378;28;20087;-61
2021/04/27 07:33:00;;;;;;;37.43;20.03;;;;;;;8.65;62.24;98363.81;5021371;28;20060;-62
2021/04/27 07:35:26;;;;;;;33.47;18.07;;;;;;;8.32;61.64;98360.94;5036200;28;20340;-61
2021/04/27 07:37:52;;;;;;;40.97;20.57;;;;;;;8.56;61.72;98365.66;5020903;28;20371;-61
2021/04/27 07:40:18;;;;;;;33.50;15.97;;;;;;;8.91;60.74;98365.94;5022965;28;20034;-62
2021/04/27 07:42:43;;;;;;;44.33;21.53;;;;;;;8.93;60.63;98369.31;5020694;28;20061;-61
2021/04/27 07:45:14;;;;;;;27.63;17.90;;;;;;;9.41;59.52;98369.34;5020991;28;20025;-61
2021/04/27 07:47:40;;;;;;;46.87;22.47;;;;;;;9.61;57.53;98367.22;5021884;28;20033;-62
2021/04/27 07:50:07;;;;;;;38.53;17.30;;;;;;;9.87;56.96;98362.44;5020330;28;20026;-61
2021/04/27 07:52:33;;;;;;;39.43;19.30;;;;;;;9.81;57.37;98361.69;5022318;28;20025;-61
2021/04/27 07:55:00;;;;;;;41.63;18.77;;;;;;;10.09;56.12;98352.59;5021170;28;20411;-61
2021/04/27 07:57:25;;;;;;;40.37;19.10;;;;;;;9.76;57.63;98363.53;5025399;28;20053;-62
2021/04/27 07:59:50;;;;;;;37.93;18.33;;;;;;;10.28;57.92;98353.03;5020777;28;20057;-62
2021/04/27 08:02:16;;;;;;;28.73;15.70;;;;;;;10.59;55.71;98350.63;5025153;28;20025;-61
2021/04/27 08:04:42;;;;;;;48.67;20.57;;;;;;;10.61;54.94;98352.28;5020349;28;20029;-61
2021/04/27 08:07:07;;;;;;;33.10;19.63;;;;;;;10.86;55.01;98352.56;5020825;28;20025;-61
2021/04/27 08:09:32;;;;;;;50.10;20.23;;;;;;;11.35;54.66;98352.13;5022839;28;20053;-61
2021/04/27 08:11:58;;;;;;;23.90;17.03;;;;;;;11.52;53.05;98355.09;5023165;28;20036;-61
2021/04/27 08:14:24;;;;;;;38.80;18.70;;;;;;;11.70;53.00;98353.75;5022245;28;20087;-61
2021/04/27 08:16:50;;;;;;;26.10;17.07;;;;;;;11.76;53.74;98353.59;5021517;28;20383;-62
2021/04/27 08:19:16;;;;;;;40.22;20.33;;;;;;;12.08;51.76;98353.53;5021701;28;20026;-61
2021/04/27 08:21:42;;;;;;;29.53;16.33;;;;;;;12.14;51.53;98366.16;5022059;28;20038;-62
2021/04/27 08:24:08;;;;;;;42.33;19.75;;;;;;;12.23;51.99;98360.75;5019950;28;20076;-62
2021/04/27 08:26:34;;;;;;;39.70;20.75;;;;;;;11.78;54.07;98367.25;5021310;28;20032;-61
2021/04/27 08:28:59;;;;;;;41.25;22.08;;;;;;;11.85;54.52;98369.59;5020612;28;20285;-61
2021/04/27 08:31:25;;;;;;;37.10;19.20;;;;;;;12.04;52.88;98364.78;5018468;28;20108;-61
2021/04/27 08:33:50;;;;;;;44.65;19.63;;;;;;;12.49;51.56;98359.97;5020617;28;20030;-61
2021/04/27 08:36:16;;;;;;;47.25;21.98;;;;;;;12.13;52.39;98361.94;5023473;28;20029;-61
2021/04/27 08:38:41;;;;;;;44.05;22.08;;;;;;;12.31;51.42;98363.94;5020140;28;20040;-61
2021/04/27 08:41:07;;;;;;;44.05;22.95;;;;;;;12.45;50.82;98365.25;5020410;28;20018;-61
2021/04/27 08:43:34;;;;;;;51.97;27.45;;;;;;;12.65;50.04;98357.75;5018546;28;20040;-61
2021/04/27 08:45:59;;;;;;;45.72;26.02;;;;;;;12.91;49.96;98359.47;5020230;28;20050;-60
2021/04/27 08:48:25;;;;;;;56.00;26.38;;;;;;;12.97;48.14;98351.56;5021508;28;20340;-60
2021/04/27 08:50:51;;;;;;;42.00;22.65;;;;;;;13.23;49.05;98356.72;5023639;28;20222;-60
2021/04/27 08:53:17;;;;;;;42.50;20.20;;;;;;;13.23;48.12;98349.00;5026548;28;20041;-60
2021/04/27 08:55:43;;;;;;;45.95;21.25;;;;;;;12.86;49.87;98346.78;5027464;28;20385;-60
2021/04/27 08:58:10;;;;;;;41.53;23.80;;;;;;;12.95;48.67;98349.03;5022941;28;20033;-60
2021/04/27 09:00:37;;;;;;;41.55;26.10;;;;;;;13.18;48.43;98350.91;5022037;28;20055;-61
2021/04/27 09:03:04;;;;;;;36.88;26.45;;;;;;;13.39;47.17;98350.16;5023114;28;20030;-61
2021/04/27 09:05:33;;;;;;;34.75;19.67;;;;;;;12.87;49.36;98340.75;5024720;28;20344;-61
2021/04/27 09:07:59;;;;;;;45.03;23.55;;;;;;;12.95;49.42;98345.63;5025593;28;20033;-61
2021/04/27 09:10:28;;;;;;;40.17;21.88;;;;;;;12.68;49.98;98349.97;5022079;28;20300;-61
2021/04/27 09:13:00;;;;;;;35.45;22.55;;;;;;;12.90;48.92;98342.38;5024194;28;20025;-61
2021/04/27 09:15:30;;;;;;;40.17;17.92;;;;;;;13.38;48.88;98350.19;5021621;28;20029;-61
2021/04/27 09:17:56;;;;;;;34.78;18.95;;;;;;;12.82;49.07;98340.88;5022216;28;20030;-61
2021/04/27 09:20:22;;;;;;;51.10;22.52;;;;;;;12.96;49.45;98353.31;5023895;28;20347;-61
2021/04/27 09:22:48;;;;;;;33.88;16.50;;;;;;;13.21;49.38;98336.19;5020774;28;20044;-61
2021/04/27 09:25:14;;;;;;;39.50;18.13;;;;;;;13.51;47.87;98342.00;5023554;28;20017;-61
2021/04/27 09:27:44;;;;;;;39.25;19.10;;;;;;;13.93;47.06;98333.59;5024018;28;20132;-61
2021/04/27 09:30:24;;;;;;;34.78;16.67;;;;;;;14.08;45.82;98328.75;5025275;28;20065;-61
2021/04/27 09:32:58;;;;;;;36.65;17.40;;;;;;;14.19;46.06;98338.63;5024941;28;20036;-61
2021/04/27 09:35:39;;;;;;;32.20;16.23;;;;;;;13.48;48.50;98320.66;5023002;28;20033;-61
2021/04/27 09:38:22;;;;;;;41.30;17.55;;;;;;;13.48;47.95;98320.66;5022945;28;20034;-61
2021/04/27 09:40:48;;;;;;;33.78;15.60;;;;;;;13.84;46.63;98314.16;5020759;28;20347;-61
2021/04/27 09:43:16;;;;;;;32.72;17.48;;;;;;;14.11;46.23;98304.56;5024335;28;20095;-61
2021/04/27 09:45:43;;;;;;;31.27;16.00;;;;;;;14.30;45.37;98320.19;5020717;28;20021;-61
2021/04/27 09:48:10;;;;;;;32.90;14.88;;;;;;;14.54;44.26;98316.66;5022499;28;20033;-61
2021/04/27 09:50:37;;;;;;;36.38;16.65;;;;;;;14.55;43.04;98310.59;5024231;28;20025;-61
2021/04/27 09:53:03;;;;;;;29.63;18.02;;;;;;;14.55;44.20;98313.19;5023137;28;20040;-62
2021/04/27 09:55:35;;;;;;;39.67;17.65;;;;;;;14.39;45.33;98309.50;5024104;28;20290;-60
2021/04/27 09:58:02;;;;;;;24.95;13.10;;;;;;;14.05;47.12;98318.53;5030713;28;20331;-61
2021/04/27 10:00:31;;;;;;;29.70;14.90;;;;;;;13.71;46.56;98306.06;5024347;28;20030;-61
2021/04/27 10:02:59;;;;;;;27.73;13.43;;;;;;;14.01;47.19;98298.06;5023378;28;20295;-61
2021/04/27 10:05:25;;;;;;;29.58;14.93;;;;;;;14.14;46.04;98309.59;5041903;28;20401;-61
2021/04/27 10:07:51;;;;;;;23.17;12.63;;;;;;;14.14;47.27;98304.44;5023415;28;20025;-61
2021/04/27 10:10:18;;;;;;;32.35;14.98;;;;;;;14.24;45.59;98298.03;5023464;28;20133;-61
2021/04/27 10:12:46;;;;;;;24.20;12.70;;;;;;;13.97;46.29;98299.09;5018757;28;20033;-61
2021/04/27 10:15:12;;;;;;;26.67;13.23;;;;;;;14.47;42.94;98308.31;5021535;28;20405;-61
2021/04/27 10:17:38;;;;;;;28.73;14.35;;;;;;;14.67;42.60;98296.38;5021208;28;20033;-62
2021/04/27 10:20:07;;;;;;;23.98;12.63;;;;;;;14.84;43.99;98296.50;5022660;28;20121;-62
2021/04/27 10:22:34;;;;;;;27.50;12.77;;;;;;;14.99;43.68;98288.97;5024597;28;20029;-61
2021/04/27 10:25:00;;;;;;;27.58;13.35;;;;;;;15.27;40.97;98295.53;5025117;28;20029;-61
2021/04/27 10:27:27;;;;;;;25.98;13.48;;;;;;;15.30;42.88;98288.50;5020346;28;20025;-62
2021/04/27 10:30:16;;;;;;;30.17;13.98;;;;;;;15.05;44.53;98285.28;5027331;28;20033;-62
2021/04/27 10:32:42;;;;;;;28.95;13.90;;;;;;;15.34;42.45;98284.88;5021785;28;20040;-61
2021/04/27 10:35:11;;;;;;;25.80;12.40;;;;;;;15.68;39.88;98275.66;5023174;28;20030;-61
2021/04/27 10:38:01;;;;;;;27.55;13.80;;;;;;;15.62;40.94;98268.16;5031861;28;20017;-61
2021/04/27 10:40:42;;;;;;;26.65;14.02;;;;;;;15.64;41.44;98262.03;5020537;28;20025;-61
2021/04/27 10:43:26;;;;;;;28.83;14.05;;;;;;;15.97;39.79;98265.66;5020659;28;20037;-61
2021/04/27 10:45:55;;;;;;;29.10;12.82;;;;;;;15.83;40.34;98260.28;5022303;28;20048;-61
2021/04/27 10:48:31;;;;;;;20.83;10.65;;;;;;;15.38;40.90;98268.34;5022095;28;20040;-61
2021/04/27 10:50:59;;;;;;;33.75;15.27;;;;;;;15.35;41.25;98263.31;5022514;28;20033;-61
2021/04/27 10:53:36;;;;;;;18.42;11.27;;;;;;;15.46;39.60;98260.22;5025535;28;20021;-60
2021/04/27 10:56:05;;;;;;;26.83;13.02;;;;;;;15.56;40.80;98258.13;5027067;28;20117;-62
2021/04/27 10:58:54;;;;;;;27.25;13.05;;;;;;;15.70;40.36;98260.94;5016689;28;20048;-61
2021/04/27 11:01:28;;;;;;;23.38;11.77;;;;;;;15.69;39.14;98264.41;5022573;28;20030;-62
2021/04/27 11:03:55;;;;;;;24.98;13.00;;;;;;;15.71;40.05;98260.84;5020936;28;20040;-61
2021/04/27 11:06:21;;;;;;;26.85;13.40;;;;;;;15.61;39.84;98251.00;5021992;28;20465;-62
2021/04/27 11:08:57;;;;;;;25.83;12.30;;;;;;;15.43;39.87;98258.63;5022757;28;20089;-62
2021/04/27 11:11:26;;;;;;;28.42;13.50;;;;;;;15.43;40.18;98261.22;5022494;28;20026;-61
2021/04/27 11:13:54;;;;;;;31.98;13.23;;;;;;;15.61;39.83;98258.75;5021930;28;20378;-62
2021/04/27 11:16:26;;;;;;;24.17;12.32;;;;;;;15.53;39.13;98259.09;5018832;28;20044;-62
2021/04/27 11:19:09;;;;;;;31.77;13.82;;;;;;;15.50;38.93;98254.91;5019641;28;20095;-61
2021/04/27 11:21:34;;;;;;;26.45;12.68;;;;;;;15.41;39.22;98254.44;5020921;28;20030;-61
2021/04/27 11:24:02;;;;;;;30.13;14.93;;;;;;;15.72;39.14;98252.19;5024260;28;20083;-61